sensor_id;sensor_type;location;lat;lon;timestamp;P1;durP1;ratioP1;P2;durP2;ratioP2
7051;SDS011;3567;52.444;13.556;2023-05-14T00:01:32;12.60;;;10.55;;
7051;SDS011;3567;52.444;13.556;2023-05-14T00:03:58;13.07;;;11.77;;
7051;SDS011;3567;52.444;13.556;2023-05-14T00:06:23;12.95;;;11.60;;
7051;SDS011;3567;52.444;13.556;2023-05-14T00:08:48;15.50;;;12.57;;
7051;SDS011;3567;52.444;13.556;2023-05-14T00:11:14;12.85;;;11.65;;
7051;SDS011;3567;52.444;13.556;2023-05-14T00:13:40;16.23;;;11.68;;
7051;SDS011;3567;52.444;13.556;2023-05-14T00:16:05;16.63;;;13.10;;
7051;SDS011;3567;52.444;13.556;2023-05-14T00:18:30;19.77;;;13.95;;
7051;SDS011;3567;52.444;13.556;2023-05-14T00:20:56;14.75;;;13.27;;
7051;SDS011;3567;52.444;13.556;2023-05-14T00:23:21;17.50;;;12.45;;
7051;SDS011;3567;52.444;13.556;2023-05-14T00:25:47;20.58;;;12.73;;
7051;SDS011;3567;52.444;13.556;2023-05-14T00:28:12;14.20;;;12.70;;
7051;SDS011;3567;52.444;13.556;2023-05-14T00:30:37;13.82;;;11.98;;
7051;SDS011;3567;52.444;13.556;2023-05-14T00:33:03;14.88;;;13.38;;
7051;SDS011;3567;52.444;13.556;2023-05-14T00:35:29;15.35;;;12.65;;
7051;SDS011;3567;52.444;13.556;2023-05-14T00:37:55;14.63;;;13.13;;
7051;SDS011;3567;52.444;13.556;2023-05-14T00:40:22;14.23;;;12.73;;
7051;SDS011;3567;52.444;13.556;2023-05-14T00:42:50;18.77;;;12.85;;
7051;SDS011;3567;52.444;13.556;2023-05-14T00:45:16;14.90;;;13.40;;
7051;SDS011;3567;52.444;13.556;2023-05-14T00:47:41;19.15;;;13.23;;
7051;SDS011;3567;52.444;13.556;2023-05-14T00:50:07;15.55;;;13.57;;
7051;SDS011;3567;52.444;13.556;2023-05-14T00:52:33;13.23;;;11.98;;
7051;SDS011;3567;52.444;13.556;2023-05-14T00:54:59;17.00;;;13.68;;
7051;SDS011;3567;52.444;13.556;2023-05-14T00:57:27;16.77;;;12.05;;
7051;SDS011;3567;52.444;13.556;2023-05-14T00:59:52;16.75;;;12.27;;
7051;SDS011;3567;52.444;13.556;2023-05-14T01:02:18;19.13;;;13.55;;
7051;SDS011;3567;52.444;13.556;2023-05-14T01:04:43;13.48;;;11.82;;
7051;SDS011;3567;52.444;13.556;2023-05-14T01:07:28;17.95;;;14.55;;
7051;SDS011;3567;52.444;13.556;2023-05-14T01:15:33;13.38;;;12.07;;
7051;SDS011;3567;52.444;13.556;2023-05-14T01:18:06;16.60;;;14.25;;
7051;SDS011;3567;52.444;13.556;2023-05-14T01:20:33;18.35;;;13.43;;
7051;SDS011;3567;52.444;13.556;2023-05-14T01:22:59;18.85;;;13.40;;
7051;SDS011;3567;52.444;13.556;2023-05-14T01:25:24;13.90;;;12.45;;
7051;SDS011;3567;52.444;13.556;2023-05-14T01:30:22;24.40;;;15.38;;
7051;SDS011;3567;52.444;13.556;2023-05-14T01:33:09;20.05;;;14.18;;
7051;SDS011;3567;52.444;13.556;2023-05-14T01:35:36;15.38;;;13.77;;
7051;SDS011;3567;52.444;13.556;2023-05-14T01:38:05;14.23;;;12.55;;
7051;SDS011;3567;52.444;13.556;2023-05-14T01:40:33;13.77;;;12.45;;
7051;SDS011;3567;52.444;13.556;2023-05-14T01:43:01;14.63;;;13.02;;
7051;SDS011;3567;52.444;13.556;2023-05-14T01:45:27;13.85;;;12.43;;
7051;SDS011;3567;52.444;13.556;2023-05-14T01:47:53;15.35;;;13.18;;
7051;SDS011;3567;52.444;13.556;2023-05-14T01:50:19;14.77;;;13.27;;
7051;SDS011;3567;52.444;13.556;2023-05-14T01:52:44;16.25;;;14.52;;
7051;SDS011;3567;52.444;13.556;2023-05-14T01:55:10;15.02;;;13.63;;
7051;SDS011;3567;52.444;13.556;2023-05-14T01:57:36;15.77;;;14.07;;
7051;SDS011;3567;52.444;13.556;2023-05-14T02:00:01;16.50;;;14.00;;
7051;SDS011;3567;52.444;13.556;2023-05-14T02:02:28;14.60;;;13.20;;
7051;SDS011;3567;52.444;13.556;2023-05-14T02:04:53;16.00;;;13.05;;
7051;SDS011;3567;52.444;13.556;2023-05-14T02:07:19;13.55;;;12.18;;
7051;SDS011;3567;52.444;13.556;2023-05-14T02:09:44;15.65;;;13.68;;
7051;SDS011;3567;52.444;13.556;2023-05-14T02:12:09;15.20;;;13.73;;
7051;SDS011;3567;52.444;13.556;2023-05-14T02:14:35;12.25;;;10.70;;
7051;SDS011;3567;52.444;13.556;2023-05-14T02:17:01;16.00;;;12.15;;
7051;SDS011;3567;52.444;13.556;2023-05-14T02:19:27;12.57;;;11.10;;
7051;SDS011;3567;52.444;13.556;2023-05-14T02:21:53;13.63;;;12.35;;
7051;SDS011;3567;52.444;13.556;2023-05-14T02:24:18;14.07;;;12.70;;
7051;SDS011;3567;52.444;13.556;2023-05-14T02:26:43;13.30;;;11.88;;
7051;SDS011;3567;52.444;13.556;2023-05-14T02:29:09;15.98;;;12.90;;
7051;SDS011;3567;52.444;13.556;2023-05-14T02:31:34;14.07;;;11.57;;
7051;SDS011;3567;52.444;13.556;2023-05-14T02:34:00;12.80;;;11.18;;
7051;SDS011;3567;52.444;13.556;2023-05-14T02:36:28;11.45;;;10.35;;
7051;SDS011;3567;52.444;13.556;2023-05-14T02:38:53;10.85;;;9.93;;
7051;SDS011;3567;52.444;13.556;2023-05-14T02:41:18;17.65;;;11.32;;
7051;SDS011;3567;52.444;13.556;2023-05-14T02:43:43;11.07;;;10.07;;
7051;SDS011;3567;52.444;13.556;2023-05-14T02:46:09;13.98;;;9.52;;
7051;SDS011;3567;52.444;13.556;2023-05-14T02:48:34;11.25;;;10.15;;
7051;SDS011;3567;52.444;13.556;2023-05-14T02:51:00;12.48;;;10.60;;
7051;SDS011;3567;52.444;13.556;2023-05-14T02:53:26;11.73;;;10.63;;
7051;SDS011;3567;52.444;13.556;2023-05-14T02:55:51;11.23;;;10.00;;
7051;SDS011;3567;52.444;13.556;2023-05-14T02:58:17;11.70;;;9.57;;
7051;SDS011;3567;52.444;13.556;2023-05-14T03:00:43;9.82;;;8.73;;
7051;SDS011;3567;52.444;13.556;2023-05-14T03:03:08;11.90;;;9.93;;
7051;SDS011;3567;52.444;13.556;2023-05-14T03:05:33;9.95;;;9.05;;
7051;SDS011;3567;52.444;13.556;2023-05-14T03:07:59;9.52;;;8.73;;
7051;SDS011;3567;52.444;13.556;2023-05-14T03:10:24;8.90;;;8.10;;
7051;SDS011;3567;52.444;13.556;2023-05-14T03:12:50;8.45;;;7.68;;
7051;SDS011;3567;52.444;13.556;2023-05-14T03:15:15;8.98;;;8.13;;
7051;SDS011;3567;52.444;13.556;2023-05-14T03:17:41;9.90;;;8.23;;
7051;SDS011;3567;52.444;13.556;2023-05-14T03:20:06;13.45;;;9.32;;
7051;SDS011;3567;52.444;13.556;2023-05-14T03:22:32;9.77;;;8.27;;
7051;SDS011;3567;52.444;13.556;2023-05-14T03:24:57;9.05;;;8.20;;
7051;SDS011;3567;52.444;13.556;2023-05-14T03:27:23;12.10;;;7.97;;
7051;SDS011;3567;52.444;13.556;2023-05-14T03:29:48;9.50;;;8.38;;
7051;SDS011;3567;52.444;13.556;2023-05-14T03:32:13;9.88;;;8.55;;
7051;SDS011;3567;52.444;13.556;2023-05-14T03:34:39;10.32;;;9.18;;
7051;SDS011;3567;52.444;13.556;2023-05-14T03:37:05;12.55;;;9.13;;
7051;SDS011;3567;52.444;13.556;2023-05-14T03:39:30;11.65;;;7.90;;
7051;SDS011;3567;52.444;13.556;2023-05-14T03:41:55;8.77;;;7.88;;
7051;SDS011;3567;52.444;13.556;2023-05-14T03:44:22;8.43;;;7.40;;
7051;SDS011;3567;52.444;13.556;2023-05-14T03:46:48;9.68;;;7.18;;
7051;SDS011;3567;52.444;13.556;2023-05-14T03:49:13;9.13;;;8.38;;
7051;SDS011;3567;52.444;13.556;2023-05-14T03:51:39;9.52;;;7.60;;
7051;SDS011;3567;52.444;13.556;2023-05-14T03:54:05;8.35;;;7.55;;
7051;SDS011;3567;52.444;13.556;2023-05-14T03:56:30;11.88;;;7.93;;
7051;SDS011;3567;52.444;13.556;2023-05-14T03:58:55;9.55;;;8.60;;
7051;SDS011;3567;52.444;13.556;2023-05-14T04:01:21;10.68;;;7.70;;
7051;SDS011;3567;52.444;13.556;2023-05-14T04:03:46;8.73;;;7.10;;
7051;SDS011;3567;52.444;13.556;2023-05-14T04:06:11;8.90;;;7.88;;
7051;SDS011;3567;52.444;13.556;2023-05-14T04:08:37;8.15;;;7.43;;
7051;SDS011;3567;52.444;13.556;2023-05-14T04:11:03;8.68;;;7.80;;
7051;SDS011;3567;52.444;13.556;2023-05-14T04:13:28;9.10;;;8.05;;
7051;SDS011;3567;52.444;13.556;2023-05-14T04:15:54;11.60;;;7.97;;
7051;SDS011;3567;52.444;13.556;2023-05-14T04:18:19;8.85;;;8.05;;
7051;SDS011;3567;52.444;13.556;2023-05-14T04:20:44;8.95;;;7.93;;
7051;SDS011;3567;52.444;13.556;2023-05-14T04:23:10;10.10;;;9.05;;
7051;SDS011;3567;52.444;13.556;2023-05-14T04:25:35;9.60;;;8.60;;
7051;SDS011;3567;52.444;13.556;2023-05-14T04:28:00;12.80;;;7.90;;
7051;SDS011;3567;52.444;13.556;2023-05-14T04:30:26;11.00;;;8.20;;
7051;SDS011;3567;52.444;13.556;2023-05-14T04:32:51;9.18;;;7.85;;
7051;SDS011;3567;52.444;13.556;2023-05-14T04:35:16;9.10;;;8.00;;
7051;SDS011;3567;52.444;13.556;2023-05-14T04:37:42;8.75;;;7.85;;
7051;SDS011;3567;52.444;13.556;2023-05-14T04:40:07;14.63;;;8.88;;
7051;SDS011;3567;52.444;13.556;2023-05-14T04:42:35;12.55;;;8.07;;
7051;SDS011;3567;52.444;13.556;2023-05-14T04:45:01;8.57;;;7.57;;
7051;SDS011;3567;52.444;13.556;2023-05-14T04:47:27;10.82;;;7.45;;
7051;SDS011;3567;52.444;13.556;2023-05-14T04:49:52;9.55;;;6.90;;
7051;SDS011;3567;52.444;13.556;2023-05-14T04:52:17;9.02;;;6.88;;
7051;SDS011;3567;52.444;13.556;2023-05-14T04:54:43;9.38;;;8.32;;
7051;SDS011;3567;52.444;13.556;2023-05-14T04:57:08;10.18;;;7.90;;
7051;SDS011;3567;52.444;13.556;2023-05-14T04:59:33;8.95;;;7.55;;
7051;SDS011;3567;52.444;13.556;2023-05-14T05:01:59;8.65;;;7.70;;
7051;SDS011;3567;52.444;13.556;2023-05-14T05:04:24;10.90;;;7.82;;
7051;SDS011;3567;52.444;13.556;2023-05-14T05:06:50;9.82;;;7.18;;
7051;SDS011;3567;52.444;13.556;2023-05-14T05:09:18;7.10;;;6.47;;
7051;SDS011;3567;52.444;13.556;2023-05-14T05:11:44;10.38;;;6.93;;
7051;SDS011;3567;52.444;13.556;2023-05-14T05:14:09;12.57;;;7.13;;
7051;SDS011;3567;52.444;13.556;2023-05-14T05:16:34;9.70;;;7.63;;
7051;SDS011;3567;52.444;13.556;2023-05-14T05:19:00;10.60;;;7.18;;
7051;SDS011;3567;52.444;13.556;2023-05-14T05:21:25;9.07;;;7.20;;
7051;SDS011;3567;52.444;13.556;2023-05-14T05:23:51;7.57;;;6.57;;
7051;SDS011;3567;52.444;13.556;2023-05-14T05:26:16;8.38;;;6.55;;
7051;SDS011;3567;52.444;13.556;2023-05-14T05:28:42;7.50;;;6.80;;
7051;SDS011;3567;52.444;13.556;2023-05-14T05:31:07;12.63;;;6.70;;
7051;SDS011;3567;52.444;13.556;2023-05-14T05:33:33;7.30;;;6.38;;
7051;SDS011;3567;52.444;13.556;2023-05-14T05:35:59;7.97;;;6.10;;
7051;SDS011;3567;52.444;13.556;2023-05-14T05:38:24;8.18;;;5.57;;
7051;SDS011;3567;52.444;13.556;2023-05-14T05:40:50;10.20;;;8.93;;
7051;SDS011;3567;52.444;13.556;2023-05-14T05:43:15;10.50;;;8.30;;
7051;SDS011;3567;52.444;13.556;2023-05-14T05:45:40;8.63;;;7.43;;
7051;SDS011;3567;52.444;13.556;2023-05-14T05:48:06;7.13;;;5.95;;
7051;SDS011;3567;52.444;13.556;2023-05-14T05:50:31;7.82;;;6.20;;
7051;SDS011;3567;52.444;13.556;2023-05-14T05:52:57;6.22;;;5.40;;
7051;SDS011;3567;52.444;13.556;2023-05-14T05:55:25;6.90;;;4.80;;
7051;SDS011;3567;52.444;13.556;2023-05-14T05:57:50;9.13;;;5.43;;
7051;SDS011;3567;52.444;13.556;2023-05-14T06:00:16;8.73;;;5.32;;
7051;SDS011;3567;52.444;13.556;2023-05-14T06:02:41;5.80;;;4.50;;
7051;SDS011;3567;52.444;13.556;2023-05-14T06:05:07;8.98;;;4.68;;
7051;SDS011;3567;52.444;13.556;2023-05-14T06:07:33;6.18;;;5.68;;
7051;SDS011;3567;52.444;13.556;2023-05-14T06:09:59;8.32;;;4.93;;
7051;SDS011;3567;52.444;13.556;2023-05-14T06:12:24;9.93;;;5.50;;
7051;SDS011;3567;52.444;13.556;2023-05-14T06:14:50;6.35;;;5.38;;
7051;SDS011;3567;52.444;13.556;2023-05-14T06:17:15;6.18;;;4.82;;
7051;SDS011;3567;52.444;13.556;2023-05-14T06:19:41;6.78;;;5.43;;
7051;SDS011;3567;52.444;13.556;2023-05-14T06:22:06;5.80;;;5.20;;
7051;SDS011;3567;52.444;13.556;2023-05-14T06:24:31;6.18;;;5.43;;
7051;SDS011;3567;52.444;13.556;2023-05-14T06:26:57;8.38;;;4.32;;
7051;SDS011;3567;52.444;13.556;2023-05-14T06:29:22;5.80;;;4.78;;
7051;SDS011;3567;52.444;13.556;2023-05-14T06:31:47;9.88;;;4.80;;
7051;SDS011;3567;52.444;13.556;2023-05-14T06:34:13;7.72;;;4.40;;
7051;SDS011;3567;52.444;13.556;2023-05-14T06:36:38;5.00;;;4.30;;
7051;SDS011;3567;52.444;13.556;2023-05-14T06:39:04;5.90;;;4.03;;
7051;SDS011;3567;52.444;13.556;2023-05-14T06:41:29;7.18;;;3.65;;
7051;SDS011;3567;52.444;13.556;2023-05-14T06:43:54;5.38;;;4.15;;
7051;SDS011;3567;52.444;13.556;2023-05-14T06:46:20;8.77;;;4.60;;
7051;SDS011;3567;52.444;13.556;2023-05-14T06:48:45;8.30;;;4.70;;
7051;SDS011;3567;52.444;13.556;2023-05-14T06:51:11;5.47;;;4.10;;
7051;SDS011;3567;52.444;13.556;2023-05-14T06:53:37;6.18;;;4.30;;
7051;SDS011;3567;52.444;13.556;2023-05-14T06:56:03;5.18;;;3.67;;
7051;SDS011;3567;52.444;13.556;2023-05-14T06:58:28;3.78;;;3.45;;
7051;SDS011;3567;52.444;13.556;2023-05-14T07:00:54;6.25;;;4.53;;
7051;SDS011;3567;52.444;13.556;2023-05-14T07:03:23;6.13;;;3.90;;
7051;SDS011;3567;52.444;13.556;2023-05-14T07:05:48;7.05;;;3.90;;
7051;SDS011;3567;52.444;13.556;2023-05-14T07:08:14;3.95;;;3.55;;
7051;SDS011;3567;52.444;13.556;2023-05-14T07:10:39;7.38;;;3.78;;
7051;SDS011;3567;52.444;13.556;2023-05-14T07:13:04;4.78;;;3.47;;
7051;SDS011;3567;52.444;13.556;2023-05-14T07:15:30;8.20;;;4.10;;
7051;SDS011;3567;52.444;13.556;2023-05-14T07:17:55;3.97;;;3.60;;
7051;SDS011;3567;52.444;13.556;2023-05-14T07:20:21;4.50;;;3.25;;
7051;SDS011;3567;52.444;13.556;2023-05-14T07:22:48;5.50;;;3.65;;
7051;SDS011;3567;52.444;13.556;2023-05-14T07:25:14;3.70;;;3.13;;
7051;SDS011;3567;52.444;13.556;2023-05-14T07:27:39;5.07;;;3.80;;
7051;SDS011;3567;52.444;13.556;2023-05-14T07:30:05;4.03;;;3.28;;
7051;SDS011;3567;52.444;13.556;2023-05-14T07:32:31;4.78;;;3.53;;
7051;SDS011;3567;52.444;13.556;2023-05-14T07:34:57;4.50;;;3.67;;
7051;SDS011;3567;52.444;13.556;2023-05-14T07:37:22;6.30;;;4.43;;
7051;SDS011;3567;52.444;13.556;2023-05-14T07:39:49;5.15;;;3.67;;
7051;SDS011;3567;52.444;13.556;2023-05-14T07:42:15;4.45;;;3.30;;
7051;SDS011;3567;52.444;13.556;2023-05-14T07:44:41;6.53;;;3.38;;
7051;SDS011;3567;52.444;13.556;2023-05-14T07:47:06;4.38;;;3.28;;
7051;SDS011;3567;52.444;13.556;2023-05-14T07:49:32;4.88;;;3.92;;
7051;SDS011;3567;52.444;13.556;2023-05-14T07:51:58;8.55;;;4.60;;
7051;SDS011;3567;52.444;13.556;2023-05-14T07:54:23;5.22;;;3.80;;
7051;SDS011;3567;52.444;13.556;2023-05-14T07:56:49;8.38;;;4.13;;
7051;SDS011;3567;52.444;13.556;2023-05-14T07:59:14;5.80;;;3.58;;
7051;SDS011;3567;52.444;13.556;2023-05-14T08:01:39;5.07;;;3.00;;
7051;SDS011;3567;52.444;13.556;2023-05-14T08:04:05;5.82;;;3.47;;
7051;SDS011;3567;52.444;13.556;2023-05-14T08:06:31;2.90;;;2.70;;
7051;SDS011;3567;52.444;13.556;2023-05-14T08:08:56;8.23;;;6.45;;
7051;SDS011;3567;52.444;13.556;2023-05-14T08:11:22;5.65;;;3.75;;
7051;SDS011;3567;52.444;13.556;2023-05-14T08:13:47;5.45;;;3.25;;
7051;SDS011;3567;52.444;13.556;2023-05-14T08:16:12;5.25;;;3.13;;
7051;SDS011;3567;52.444;13.556;2023-05-14T08:18:38;4.38;;;2.75;;
7051;SDS011;3567;52.444;13.556;2023-05-14T08:21:03;3.08;;;2.58;;
7051;SDS011;3567;52.444;13.556;2023-05-14T08:23:28;4.25;;;2.80;;
7051;SDS011;3567;52.444;13.556;2023-05-14T08:25:54;3.70;;;2.90;;
7051;SDS011;3567;52.444;13.556;2023-05-14T08:28:19;3.35;;;2.72;;
7051;SDS011;3567;52.444;13.556;2023-05-14T08:30:45;4.93;;;2.70;;
7051;SDS011;3567;52.444;13.556;2023-05-14T08:33:10;4.13;;;2.70;;
7051;SDS011;3567;52.444;13.556;2023-05-14T08:35:35;2.72;;;2.60;;
7051;SDS011;3567;52.444;13.556;2023-05-14T08:38:01;6.15;;;2.80;;
7051;SDS011;3567;52.444;13.556;2023-05-14T08:40:26;3.40;;;2.42;;
7051;SDS011;3567;52.444;13.556;2023-05-14T08:42:51;5.10;;;3.00;;
7051;SDS011;3567;52.444;13.556;2023-05-14T08:45:19;3.38;;;2.55;;
7051;SDS011;3567;52.444;13.556;2023-05-14T08:47:49;4.60;;;2.28;;
7051;SDS011;3567;52.444;13.556;2023-05-14T08:50:15;2.58;;;2.38;;
7051;SDS011;3567;52.444;13.556;2023-05-14T08:52:42;4.38;;;3.28;;
7051;SDS011;3567;52.444;13.556;2023-05-14T08:55:08;4.10;;;2.08;;
7051;SDS011;3567;52.444;13.556;2023-05-14T08:57:34;2.50;;;2.25;;
7051;SDS011;3567;52.444;13.556;2023-05-14T09:00:00;2.53;;;2.33;;
7051;SDS011;3567;52.444;13.556;2023-05-14T09:02:27;2.47;;;2.10;;
7051;SDS011;3567;52.444;13.556;2023-05-14T09:04:56;2.50;;;2.35;;
7051;SDS011;3567;52.444;13.556;2023-05-14T09:07:23;2.25;;;2.05;;
7051;SDS011;3567;52.444;13.556;2023-05-14T09:09:49;3.60;;;2.00;;
7051;SDS011;3567;52.444;13.556;2023-05-14T09:12:15;2.50;;;2.28;;
7051;SDS011;3567;52.444;13.556;2023-05-14T09:14:41;2.95;;;2.50;;
7051;SDS011;3567;52.444;13.556;2023-05-14T09:17:06;2.33;;;2.13;;
7051;SDS011;3567;52.444;13.556;2023-05-14T09:19:32;3.28;;;2.08;;
7051;SDS011;3567;52.444;13.556;2023-05-14T09:21:58;3.13;;;2.47;;
7051;SDS011;3567;52.444;13.556;2023-05-14T09:24:24;3.08;;;2.67;;
7051;SDS011;3567;52.444;13.556;2023-05-14T09:26:55;3.47;;;2.22;;
7051;SDS011;3567;52.444;13.556;2023-05-14T09:29:25;3.50;;;2.00;;
7051;SDS011;3567;52.444;13.556;2023-05-14T09:31:54;4.10;;;2.65;;
7051;SDS011;3567;52.444;13.556;2023-05-14T09:34:24;2.38;;;2.05;;
7051;SDS011;3567;52.444;13.556;2023-05-14T09:36:55;3.33;;;2.08;;
7051;SDS011;3567;52.444;13.556;2023-05-14T09:39:22;2.17;;;1.98;;
7051;SDS011;3567;52.444;13.556;2023-05-14T09:41:48;3.97;;;2.20;;
7051;SDS011;3567;52.444;13.556;2023-05-14T09:44:15;3.33;;;2.30;;
7051;SDS011;3567;52.444;13.556;2023-05-14T09:46:41;4.90;;;2.33;;
7051;SDS011;3567;52.444;13.556;2023-05-14T09:49:07;7.07;;;3.17;;
7051;SDS011;3567;52.444;13.556;2023-05-14T09:51:32;2.08;;;1.98;;
7051;SDS011;3567;52.444;13.556;2023-05-14T09:53:57;3.67;;;2.70;;
7051;SDS011;3567;52.444;13.556;2023-05-14T09:56:23;3.22;;;2.33;;
7051;SDS011;3567;52.444;13.556;2023-05-14T09:58:48;2.67;;;1.80;;
7051;SDS011;3567;52.444;13.556;2023-05-14T10:01:14;3.53;;;2.25;;
7051;SDS011;3567;52.444;13.556;2023-05-14T10:03:42;4.00;;;3.30;;
7051;SDS011;3567;52.444;13.556;2023-05-14T10:06:08;2.80;;;2.50;;
7051;SDS011;3567;52.444;13.556;2023-05-14T10:08:37;3.85;;;2.60;;
7051;SDS011;3567;52.444;13.556;2023-05-14T10:11:07;3.17;;;2.05;;
7051;SDS011;3567;52.444;13.556;2023-05-14T10:13:41;4.03;;;2.17;;
7051;SDS011;3567;52.444;13.556;2023-05-14T10:16:26;3.53;;;2.40;;
7051;SDS011;3567;52.444;13.556;2023-05-14T10:18:57;3.03;;;1.95;;
7051;SDS011;3567;52.444;13.556;2023-05-14T10:21:29;3.88;;;2.60;;
7051;SDS011;3567;52.444;13.556;2023-05-14T10:23:58;2.33;;;2.13;;
7051;SDS011;3567;52.444;13.556;2023-05-14T10:26:24;2.22;;;2.00;;
7051;SDS011;3567;52.444;13.556;2023-05-14T10:28:50;5.07;;;1.83;;
7051;SDS011;3567;52.444;13.556;2023-05-14T10:31:15;3.95;;;2.00;;
7051;SDS011;3567;52.444;13.556;2023-05-14T10:33:48;3.25;;;2.40;;
7051;SDS011;3567;52.444;13.556;2023-05-14T10:36:17;3.70;;;2.10;;
7051;SDS011;3567;52.444;13.556;2023-05-14T10:38:46;2.33;;;2.15;;
7051;SDS011;3567;52.444;13.556;2023-05-14T10:41:20;2.90;;;2.20;;
7051;SDS011;3567;52.444;13.556;2023-05-14T10:43:45;2.35;;;1.90;;
7051;SDS011;3567;52.444;13.556;2023-05-14T10:46:11;5.55;;;2.40;;
7051;SDS011;3567;52.444;13.556;2023-05-14T10:48:38;6.18;;;2.22;;
7051;SDS011;3567;52.444;13.556;2023-05-14T10:51:06;3.47;;;2.40;;
7051;SDS011;3567;52.444;13.556;2023-05-14T10:56:06;2.95;;;2.08;;
7051;SDS011;3567;52.444;13.556;2023-05-14T10:58:36;3.13;;;2.05;;
7051;SDS011;3567;52.444;13.556;2023-05-14T11:01:04;3.00;;;2.60;;
7051;SDS011;3567;52.444;13.556;2023-05-14T11:03:30;2.47;;;2.28;;
7051;SDS011;3567;52.444;13.556;2023-05-14T11:05:56;5.13;;;2.95;;
7051;SDS011;3567;52.444;13.556;2023-05-14T11:08:24;3.13;;;2.88;;
7051;SDS011;3567;52.444;13.556;2023-05-14T11:10:50;4.45;;;3.22;;
7051;SDS011;3567;52.444;13.556;2023-05-14T11:13:16;2.83;;;2.63;;
7051;SDS011;3567;52.444;13.556;2023-05-14T11:15:43;2.80;;;2.45;;
7051;SDS011;3567;52.444;13.556;2023-05-14T11:18:12;3.70;;;2.65;;
7051;SDS011;3567;52.444;13.556;2023-05-14T11:20:37;2.80;;;2.60;;
7051;SDS011;3567;52.444;13.556;2023-05-14T11:23:03;2.92;;;2.55;;
7051;SDS011;3567;52.444;13.556;2023-05-14T11:25:28;3.83;;;2.47;;
7051;SDS011;3567;52.444;13.556;2023-05-14T11:27:54;2.65;;;2.20;;
7051;SDS011;3567;52.444;13.556;2023-05-14T11:30:24;3.67;;;2.67;;
7051;SDS011;3567;52.444;13.556;2023-05-14T11:32:50;3.45;;;3.08;;
7051;SDS011;3567;52.444;13.556;2023-05-14T11:35:16;6.32;;;2.38;;
7051;SDS011;3567;52.444;13.556;2023-05-14T11:37:42;5.25;;;2.83;;
7051;SDS011;3567;52.444;13.556;2023-05-14T11:40:13;3.53;;;2.50;;
7051;SDS011;3567;52.444;13.556;2023-05-14T11:42:42;2.40;;;2.28;;
7051;SDS011;3567;52.444;13.556;2023-05-14T11:45:11;2.97;;;2.45;;
7051;SDS011;3567;52.444;13.556;2023-05-14T11:47:39;3.17;;;2.92;;
7051;SDS011;3567;52.444;13.556;2023-05-14T11:50:05;3.20;;;2.90;;
7051;SDS011;3567;52.444;13.556;2023-05-14T11:52:35;4.75;;;2.88;;
7051;SDS011;3567;52.444;13.556;2023-05-14T11:55:01;3.60;;;2.70;;
7051;SDS011;3567;52.444;13.556;2023-05-14T11:57:28;2.03;;;1.92;;
7051;SDS011;3567;52.444;13.556;2023-05-14T11:59:55;4.47;;;3.00;;
7051;SDS011;3567;52.444;13.556;2023-05-14T12:02:21;6.50;;;2.53;;
7051;SDS011;3567;52.444;13.556;2023-05-14T12:04:50;3.20;;;2.90;;
7051;SDS011;3567;52.444;13.556;2023-05-14T12:07:17;2.75;;;2.55;;
7051;SDS011;3567;52.444;13.556;2023-05-14T12:09:44;3.40;;;2.20;;
7051;SDS011;3567;52.444;13.556;2023-05-14T12:12:13;2.47;;;2.38;;
7051;SDS011;3567;52.444;13.556;2023-05-14T12:14:41;3.97;;;2.47;;
7051;SDS011;3567;52.444;13.556;2023-05-14T12:17:15;2.30;;;2.10;;
7051;SDS011;3567;52.444;13.556;2023-05-14T12:19:42;2.72;;;2.53;;
7051;SDS011;3567;52.444;13.556;2023-05-14T12:22:09;5.45;;;2.60;;
7051;SDS011;3567;52.444;13.556;2023-05-14T12:24:35;4.75;;;2.30;;
7051;SDS011;3567;52.444;13.556;2023-05-14T12:27:02;2.47;;;2.20;;
7051;SDS011;3567;52.444;13.556;2023-05-14T12:29:28;4.18;;;2.45;;
7051;SDS011;3567;52.444;13.556;2023-05-14T12:31:55;4.18;;;2.15;;
7051;SDS011;3567;52.444;13.556;2023-05-14T12:34:21;5.28;;;2.50;;
7051;SDS011;3567;52.444;13.556;2023-05-14T12:36:47;3.25;;;2.42;;
7051;SDS011;3567;52.444;13.556;2023-05-14T12:39:12;3.80;;;2.58;;
7051;SDS011;3567;52.444;13.556;2023-05-14T12:41:38;2.28;;;2.17;;
7051;SDS011;3567;52.444;13.556;2023-05-14T12:44:04;3.15;;;2.17;;
7051;SDS011;3567;52.444;13.556;2023-05-14T12:46:29;6.70;;;2.10;;
7051;SDS011;3567;52.444;13.556;2023-05-14T12:48:55;4.10;;;2.35;;
7051;SDS011;3567;52.444;13.556;2023-05-14T12:51:21;3.10;;;2.58;;
7051;SDS011;3567;52.444;13.556;2023-05-14T12:53:47;2.78;;;2.30;;
7051;SDS011;3567;52.444;13.556;2023-05-14T12:56:12;3.25;;;2.35;;
7051;SDS011;3567;52.444;13.556;2023-05-14T12:58:38;2.00;;;1.80;;
7051;SDS011;3567;52.444;13.556;2023-05-14T13:01:03;2.53;;;1.98;;
7051;SDS011;3567;52.444;13.556;2023-05-14T13:03:29;2.60;;;2.40;;
7051;SDS011;3567;52.444;13.556;2023-05-14T13:05:55;4.85;;;2.00;;
7051;SDS011;3567;52.444;13.556;2023-05-14T13:08:20;3.53;;;2.85;;
7051;SDS011;3567;52.444;13.556;2023-05-14T13:10:49;2.63;;;1.77;;
7051;SDS011;3567;52.444;13.556;2023-05-14T13:13:15;3.42;;;2.03;;
7051;SDS011;3567;52.444;13.556;2023-05-14T13:15:40;5.03;;;2.13;;
7051;SDS011;3567;52.444;13.556;2023-05-14T13:18:06;2.88;;;2.00;;
7051;SDS011;3567;52.444;13.556;2023-05-14T13:20:32;2.70;;;2.50;;
7051;SDS011;3567;52.444;13.556;2023-05-14T13:22:57;2.97;;;2.00;;
7051;SDS011;3567;52.444;13.556;2023-05-14T13:25:23;3.90;;;2.35;;
7051;SDS011;3567;52.444;13.556;2023-05-14T13:27:48;5.35;;;2.10;;
7051;SDS011;3567;52.444;13.556;2023-05-14T13:30:18;4.70;;;2.00;;
7051;SDS011;3567;52.444;13.556;2023-05-14T13:32:44;5.00;;;1.90;;
7051;SDS011;3567;52.444;13.556;2023-05-14T13:35:09;2.00;;;1.90;;
7051;SDS011;3567;52.444;13.556;2023-05-14T13:37:35;2.92;;;2.30;;
7051;SDS011;3567;52.444;13.556;2023-05-14T13:40:01;2.05;;;1.90;;
7051;SDS011;3567;52.444;13.556;2023-05-14T13:42:28;7.97;;;2.13;;
7051;SDS011;3567;52.444;13.556;2023-05-14T13:44:54;1.88;;;1.67;;
7051;SDS011;3567;52.444;13.556;2023-05-14T13:47:20;2.75;;;2.13;;
7051;SDS011;3567;52.444;13.556;2023-05-14T13:49:45;2.95;;;1.85;;
7051;SDS011;3567;52.444;13.556;2023-05-14T13:52:11;2.78;;;2.20;;
7051;SDS011;3567;52.444;13.556;2023-05-14T13:54:36;5.28;;;1.90;;
7051;SDS011;3567;52.444;13.556;2023-05-14T13:57:02;2.85;;;1.88;;
7051;SDS011;3567;52.444;13.556;2023-05-14T13:59:27;3.80;;;2.28;;
7051;SDS011;3567;52.444;13.556;2023-05-14T14:01:52;3.00;;;2.13;;
7051;SDS011;3567;52.444;13.556;2023-05-14T14:04:18;2.13;;;1.95;;
7051;SDS011;3567;52.444;13.556;2023-05-14T14:06:43;3.30;;;1.65;;
7051;SDS011;3567;52.444;13.556;2023-05-14T14:09:09;3.53;;;1.80;;
7051;SDS011;3567;52.444;13.556;2023-05-14T14:11:34;3.13;;;1.77;;
7051;SDS011;3567;52.444;13.556;2023-05-14T14:14:00;1.60;;;1.50;;
7051;SDS011;3567;52.444;13.556;2023-05-14T14:16:25;2.25;;;1.75;;
7051;SDS011;3567;52.444;13.556;2023-05-14T14:18:50;1.65;;;1.55;;
7051;SDS011;3567;52.444;13.556;2023-05-14T14:21:16;1.95;;;1.60;;
7051;SDS011;3567;52.444;13.556;2023-05-14T14:23:43;2.70;;;1.85;;
7051;SDS011;3567;52.444;13.556;2023-05-14T14:26:09;2.58;;;2.28;;
7051;SDS011;3567;52.444;13.556;2023-05-14T14:28:35;3.97;;;2.15;;
7051;SDS011;3567;52.444;13.556;2023-05-14T14:31:01;3.28;;;1.92;;
7051;SDS011;3567;52.444;13.556;2023-05-14T14:33:26;2.33;;;1.90;;
7051;SDS011;3567;52.444;13.556;2023-05-14T14:35:52;1.77;;;1.67;;
7051;SDS011;3567;52.444;13.556;2023-05-14T14:38:17;9.55;;;2.22;;
7051;SDS011;3567;52.444;13.556;2023-05-14T14:40:43;3.70;;;2.00;;
7051;SDS011;3567;52.444;13.556;2023-05-14T14:43:08;3.65;;;1.70;;
7051;SDS011;3567;52.444;13.556;2023-05-14T14:45:33;2.08;;;1.83;;
7051;SDS011;3567;52.444;13.556;2023-05-14T14:48:21;6.47;;;2.25;;
7051;SDS011;3567;52.444;13.556;2023-05-14T14:50:49;3.45;;;1.90;;
7051;SDS011;3567;52.444;13.556;2023-05-14T14:53:14;2.40;;;2.08;;
7051;SDS011;3567;52.444;13.556;2023-05-14T14:55:39;2.22;;;1.92;;
7051;SDS011;3567;52.444;13.556;2023-05-14T14:58:05;1.80;;;1.70;;
7051;SDS011;3567;52.444;13.556;2023-05-14T15:00:30;3.03;;;1.92;;